Baltimore, Maryland
Traffic Map
Current Weather Conditions
Baltimore, Maryland
Overcast Light Rain
Overcast
56°
Feels Like: 56°
Wind Chill: 56° Ceiling: 400
Heat Index: 56° Visibility: 1.5mi
Dew Point: 56° Wind: 7mph
Humidity: 100% Direction: 40° (NE)
Pressure: 29.82in Gusts: 0mph
Raw Report DataKBWI 250854Z 04006KT 1 1/2SM -RA BR OVC004 13/13 A2982 RMK AO2 SLP099 P0009 60022 T01330133 56023
Traffic Incident Summary
Active as of:
Severity:
Category:
InformationThere was an issue retrieving the traffic information for this location. Please try a different location or try again shortly.
Advertisements